createdAt,value
2023-02-01T00:00:51.691Z,96.95
2023-02-01T00:01:51.658Z,96.75
2023-02-01T00:02:51.728Z,96.91
2023-02-01T00:03:51.664Z,96.75
2023-02-01T00:04:51.655Z,97.16
2023-02-01T00:05:51.628Z,96.95
2023-02-01T00:06:51.633Z,97.27
2023-02-01T00:07:51.601Z,97.37
2023-02-01T00:08:51.601Z,97.68
2023-02-01T00:09:51.587Z,97.99
2023-02-01T00:10:51.592Z,97.99
2023-02-01T00:11:51.554Z,97.89
2023-02-01T00:12:51.575Z,98.20
2023-02-01T00:13:51.531Z,98.20
2023-02-01T00:14:51.538Z,98.20
2023-02-01T00:15:51.535Z,98.30
2023-02-01T00:16:51.518Z,98.41
2023-02-01T00:17:51.518Z,98.30
2023-02-01T00:18:51.500Z,98.20
2023-02-01T00:19:51.477Z,98.10
2023-02-01T00:20:51.491Z,98.30
2023-02-01T00:21:51.453Z,98.10
2023-02-01T00:22:51.463Z,98.05
2023-02-01T00:23:51.444Z,98.36
2023-02-01T00:24:51.431Z,98.26
2023-02-01T00:25:51.406Z,98.41
2023-02-01T00:26:51.568Z,98.26
2023-02-01T00:27:51.404Z,97.85
2023-02-01T00:28:51.400Z,97.85
2023-02-01T00:29:51.376Z,97.64
2023-02-01T00:30:51.414Z,97.53
2023-02-01T00:31:51.416Z,97.64
2023-02-01T00:32:51.346Z,97.33
2023-02-01T00:33:51.322Z,97.22
2023-02-01T00:34:51.350Z,97.22
2023-02-01T00:35:51.302Z,97.43
2023-02-01T00:36:51.440Z,97.02
2023-02-01T00:37:51.289Z,96.91
2023-02-01T00:38:51.298Z,97.02
2023-02-01T00:39:51.307Z,97.12
2023-02-01T00:40:51.273Z,97.22
2023-02-01T00:41:51.237Z,97.22
2023-02-01T00:42:51.265Z,97.02
2023-02-01T00:43:51.219Z,97.33
2023-02-01T00:44:51.232Z,97.22
2023-02-01T00:45:51.224Z,96.81
2023-02-01T00:46:51.258Z,96.91
2023-02-01T00:47:51.195Z,96.91
2023-02-01T00:48:51.202Z,96.81
2023-02-01T00:49:51.153Z,96.39
2023-02-01T00:50:51.155Z,96.34
2023-02-01T00:51:51.132Z,96.34
2023-02-01T00:52:51.145Z,96.14
2023-02-01T00:53:51.137Z,95.93
2023-02-01T00:54:51.142Z,96.14
2023-02-01T00:55:51.093Z,95.93
2023-02-01T00:56:51.092Z,95.72
2023-02-01T00:57:51.069Z,95.72
2023-02-01T00:58:51.088Z,95.51
2023-02-01T00:59:51.054Z,95.62
2023-02-01T01:00:51.110Z,95.72
2023-02-01T01:01:51.085Z,95.62
2023-02-01T01:02:51.041Z,95.62
2023-02-01T01:03:51.000Z,95.31
2023-02-01T01:04:51.019Z,95.10
2023-02-01T01:05:50.997Z,95.00
2023-02-01T01:06:51.013Z,95.00
2023-02-01T01:07:50.959Z,94.79
2023-02-01T01:08:50.977Z,94.89
2023-02-01T01:09:50.951Z,95.10
2023-02-01T01:10:50.942Z,95.20
2023-02-01T01:11:50.919Z,95.31
2023-02-01T01:12:50.933Z,94.79
2023-02-01T01:13:50.924Z,94.89
2023-02-01T01:14:50.908Z,95.31
2023-02-01T01:15:50.918Z,95.41
2023-02-01T01:16:50.884Z,95.72
2023-02-01T01:17:50.852Z,95.72
2023-02-01T01:18:50.870Z,96.03
2023-02-01T01:19:50.830Z,96.03
2023-02-01T01:20:50.832Z,96.14
2023-02-01T01:21:50.821Z,96.45
2023-02-01T01:22:50.813Z,96.55
2023-02-01T01:23:50.792Z,96.86
2023-02-01T01:24:50.817Z,97.22
2023-02-01T01:25:50.773Z,97.43
2023-02-01T01:26:50.809Z,97.53
2023-02-01T01:27:50.746Z,97.64
2023-02-01T01:28:50.757Z,97.74
2023-02-01T01:29:50.723Z,97.33
2023-02-01T01:30:50.786Z,97.43
2023-02-01T01:31:50.746Z,97.95
2023-02-01T01:32:50.720Z,97.95
2023-02-01T01:33:50.676Z,97.85
2023-02-01T01:34:50.684Z,97.85
2023-02-01T01:35:50.671Z,97.95
2023-02-01T01:36:50.667Z,97.53
2023-02-01T01:37:50.648Z,97.43
2023-02-01T01:38:50.657Z,97.64
2023-02-01T01:39:50.622Z,97.64
2023-02-01T01:40:50.638Z,97.43
2023-02-01T01:41:50.602Z,97.33
2023-02-01T01:42:50.632Z,97.64
2023-02-01T01:43:50.584Z,97.53
2023-02-01T01:44:50.603Z,97.74
2023-02-01T01:45:50.560Z,97.64
2023-02-01T01:46:50.622Z,97.22
2023-02-01T01:47:50.542Z,97.12
2023-02-01T01:48:50.549Z,96.81
2023-02-01T01:49:50.522Z,96.81
2023-02-01T01:50:50.522Z,97.33
2023-02-01T01:51:50.514Z,97.02
2023-02-01T01:52:50.523Z,96.81
2023-02-01T01:53:50.501Z,96.91
2023-02-01T01:54:50.491Z,97.22
2023-02-01T01:55:50.464Z,97.12
2023-02-01T01:56:50.457Z,96.91
2023-02-01T01:57:50.431Z,96.60
2023-02-01T01:58:50.437Z,96.66
2023-02-01T01:59:50.417Z,96.60
2023-02-01T02:00:50.509Z,96.34
2023-02-01T02:01:50.428Z,96.55
2023-02-01T02:02:50.409Z,96.03
2023-02-01T02:03:50.388Z,95.83
2023-02-01T02:04:50.392Z,95.93
2023-02-01T02:05:50.349Z,95.51
2023-02-01T02:06:50.365Z,95.41
2023-02-01T02:07:50.326Z,95.20
2023-02-01T02:08:50.332Z,95.10
2023-02-01T02:10:00.171Z,95.41
2023-02-01T02:10:50.339Z,95.31
2023-02-01T02:11:50.305Z,95.51
2023-02-01T02:12:50.307Z,95.31
2023-02-01T02:13:50.265Z,95.41
2023-02-01T02:14:50.265Z,95.72
2023-02-01T02:15:50.238Z,95.20
2023-02-01T02:16:50.280Z,95.20
2023-02-01T02:17:50.220Z,94.89
2023-02-01T02:18:50.246Z,95.10
2023-02-01T02:19:50.199Z,95.41
2023-02-01T02:20:50.230Z,95.31
2023-02-01T02:21:50.183Z,95.41
2023-02-01T02:22:50.188Z,95.10
2023-02-01T02:23:50.165Z,95.20
2023-02-01T02:24:50.183Z,94.79
2023-02-01T02:25:50.147Z,94.79
2023-02-01T02:26:50.198Z,94.89
2023-02-01T02:27:50.147Z,94.68
2023-02-01T02:28:50.106Z,94.17
2023-02-01T02:29:50.124Z,94.37
2023-02-01T02:30:50.104Z,94.12
2023-02-01T02:31:50.137Z,94.12
2023-02-01T02:32:50.063Z,93.91
2023-02-01T02:33:50.072Z,94.12
2023-02-01T02:34:50.044Z,93.91
2023-02-01T02:35:50.063Z,94.12
2023-02-01T02:36:50.024Z,94.23
2023-02-01T02:37:50.048Z,94.27
2023-02-01T02:38:50.003Z,94.43
2023-02-01T02:39:50.006Z,94.27
2023-02-01T02:40:50.005Z,94.33
2023-02-01T02:41:49.983Z,94.54
2023-02-01T02:42:49.960Z,94.33
2023-02-01T02:43:49.977Z,94.23
2023-02-01T02:44:49.939Z,94.33
2023-02-01T02:45:50.010Z,94.23
2023-02-01T02:46:49.922Z,94.23
2023-02-01T02:47:49.935Z,94.33
2023-02-01T02:48:49.909Z,94.23
2023-02-01T02:49:49.921Z,94.02
2023-02-01T02:50:49.882Z,94.02
2023-02-01T02:51:49.908Z,94.23
2023-02-01T02:52:49.862Z,94.54
2023-02-01T02:53:49.846Z,94.12
2023-02-01T02:54:49.878Z,94.12
2023-02-01T02:55:49.831Z,94.54
2023-02-01T02:56:49.846Z,94.54
2023-02-01T02:57:49.813Z,94.17
2023-02-01T02:58:49.811Z,94.02
2023-02-01T02:59:49.784Z,94.12
2023-02-01T03:00:49.823Z,94.02
2023-02-01T03:01:49.766Z,94.23
2023-02-01T03:02:49.805Z,94.12
2023-02-01T03:03:49.751Z,93.91
2023-02-01T03:04:49.775Z,93.71
2023-02-01T03:05:49.727Z,93.71
2023-02-01T03:06:49.730Z,93.60
2023-02-01T03:07:49.705Z,93.91
2023-02-01T03:08:49.732Z,94.02
2023-02-01T03:09:49.694Z,94.12
2023-02-01T03:10:49.690Z,94.02
2023-02-01T03:11:49.671Z,93.91
2023-02-01T03:12:49.693Z,93.65
2023-02-01T03:13:49.641Z,93.40
2023-02-01T03:14:49.655Z,93.44
2023-02-01T03:15:49.630Z,93.75
2023-02-01T03:16:49.694Z,93.44
2023-02-01T03:17:49.600Z,93.50
2023-02-01T03:18:49.608Z,93.71
2023-02-01T03:19:49.582Z,93.60
2023-02-01T03:20:49.596Z,93.71
2023-02-01T03:21:49.557Z,93.75
2023-02-01T03:22:49.584Z,93.85
2023-02-01T03:23:49.537Z,94.17
2023-02-01T03:24:49.563Z,94.37
2023-02-01T03:25:49.518Z,94.37
2023-02-01T03:26:49.573Z,94.68
2023-02-01T03:27:49.496Z,94.58
2023-02-01T03:28:49.539Z,94.68
2023-02-01T03:29:49.477Z,94.17
2023-02-01T03:30:49.515Z,94.48
2023-02-01T03:31:49.476Z,94.58
2023-02-01T03:32:49.473Z,94.79
2023-02-01T03:33:49.439Z,94.68
2023-02-01T03:34:49.455Z,94.68
2023-02-01T03:35:49.411Z,94.89
2023-02-01T03:36:49.432Z,94.79
2023-02-01T03:37:49.398Z,94.68
2023-02-01T03:38:49.400Z,94.48
2023-02-01T03:39:49.399Z,94.58
2023-02-01T03:40:49.375Z,94.68
2023-02-01T03:41:49.352Z,94.58
2023-02-01T03:42:49.359Z,94.58
2023-02-01T03:43:49.331Z,94.58
2023-02-01T03:44:49.336Z,94.37
2023-02-01T03:45:49.362Z,94.37
2023-02-01T03:46:49.340Z,94.37
2023-02-01T03:47:49.293Z,94.48
2023-02-01T03:48:49.314Z,94.58
2023-02-01T03:49:49.274Z,94.37
2023-02-01T03:50:49.281Z,94.48
2023-02-01T03:51:49.327Z,94.37
2023-02-01T03:52:49.258Z,94.58
2023-02-01T03:53:49.238Z,94.79
2023-02-01T03:54:49.240Z,94.68
2023-02-01T03:55:49.208Z,94.68
2023-02-01T03:56:49.242Z,94.37
2023-02-01T03:57:49.186Z,94.17
2023-02-01T03:58:49.213Z,94.27
2023-02-01T03:59:49.167Z,94.06
2023-02-01T04:00:49.189Z,93.91
2023-02-01T04:01:49.155Z,93.91
2023-02-01T04:02:49.162Z,94.12
2023-02-01T04:03:49.127Z,94.33
2023-02-01T04:04:49.134Z,94.37
2023-02-01T04:05:49.103Z,94.06
2023-02-01T04:06:49.123Z,94.02
2023-02-01T04:07:49.147Z,93.96
2023-02-01T04:08:49.116Z,94.12
2023-02-01T04:09:49.066Z,93.91
2023-02-01T04:10:49.075Z,93.81
2023-02-01T04:11:49.046Z,93.60
2023-02-01T04:12:49.062Z,93.60
2023-02-01T04:13:49.028Z,93.81
2023-02-01T04:14:49.039Z,93.81
2023-02-01T04:15:48.999Z,93.81
2023-02-01T04:16:49.147Z,94.23
2023-02-01T04:17:48.981Z,94.12
2023-02-01T04:18:49.000Z,94.02
2023-02-01T04:19:48.966Z,94.02
2023-02-01T04:20:48.979Z,94.33
2023-02-01T04:21:48.941Z,94.23
2023-02-01T04:22:48.946Z,94.23
2023-02-01T04:23:48.919Z,94.33
2023-02-01T04:24:48.935Z,94.64
2023-02-01T04:25:48.900Z,94.64
2023-02-01T04:26:48.945Z,94.85
2023-02-01T04:27:48.885Z,95.06
2023-02-01T04:28:48.933Z,95.47
2023-02-01T04:29:48.859Z,95.72
2023-02-01T04:30:48.923Z,96.09
2023-02-01T04:31:49.022Z,96.14
2023-02-01T04:32:48.850Z,96.55
2023-02-01T04:33:48.825Z,96.97
2023-02-01T04:34:48.817Z,96.55
2023-02-01T04:35:48.795Z,96.86
2023-02-01T04:36:48.815Z,97.17
2023-02-01T04:37:48.795Z,97.38
2023-02-01T04:38:48.779Z,97.49
2023-02-01T04:39:48.753Z,97.59
2023-02-01T04:40:48.760Z,97.07
2023-02-01T04:41:48.735Z,97.07
2023-02-01T04:42:48.773Z,96.76
2023-02-01T04:43:47.707Z,96.76
2023-02-01T04:44:48.732Z,97.07
2023-02-01T04:45:48.716Z,97.49
2023-02-01T04:46:48.728Z,97.59
2023-02-01T04:47:48.682Z,97.74
2023-02-01T04:48:48.703Z,97.43
2023-02-01T04:49:48.649Z,97.53
2023-02-01T04:50:48.690Z,97.64
2023-02-01T04:51:48.629Z,97.85
2023-02-01T04:52:48.646Z,98.05
2023-02-01T04:53:48.621Z,98.26
2023-02-01T04:54:48.615Z,98.16
2023-02-01T04:55:48.588Z,98.26
2023-02-01T04:56:48.621Z,98.26
2023-02-01T04:57:48.572Z,98.26
2023-02-01T04:58:48.598Z,98.47
2023-02-01T04:59:48.546Z,98.68
2023-02-01T05:00:48.566Z,98.68
2023-02-01T05:01:49.065Z,98.68
2023-02-01T05:02:48.546Z,98.88
2023-02-01T05:03:48.518Z,98.78
2023-02-01T05:04:48.595Z,98.68
2023-02-01T05:05:48.485Z,98.78
2023-02-01T05:06:48.510Z,98.88
2023-02-01T05:07:48.468Z,99.19
2023-02-01T05:08:48.486Z,98.88
2023-02-01T05:09:48.445Z,99.09
2023-02-01T05:10:48.460Z,98.99
2023-02-01T05:11:48.426Z,99.30
2023-02-01T05:12:48.450Z,99.09
2023-02-01T05:13:48.422Z,98.88
2023-02-01T05:14:48.407Z,98.57
2023-02-01T05:15:48.413Z,98.47
2023-02-01T05:16:48.387Z,98.16
2023-02-01T05:17:48.363Z,97.85
2023-02-01T05:18:48.384Z,98.16
2023-02-01T05:19:48.356Z,98.05
2023-02-01T05:20:48.360Z,98.26
2023-02-01T05:21:48.332Z,98.05
2023-02-01T05:22:48.336Z,98.16
2023-02-01T05:23:48.304Z,97.85
2023-02-01T05:24:48.317Z,98.05
2023-02-01T05:25:48.290Z,97.02
2023-02-01T05:26:48.320Z,97.02
2023-02-01T05:27:48.262Z,96.29
2023-02-01T05:28:48.276Z,95.87
2023-02-01T05:29:48.246Z,95.87
2023-02-01T05:30:48.343Z,95.36
2023-02-01T05:31:48.363Z,95.04
2023-02-01T05:32:48.228Z,94.84
2023-02-01T05:33:48.199Z,95.46
2023-02-01T05:34:48.249Z,95.77
2023-02-01T05:35:48.181Z,95.61
2023-02-01T05:36:48.187Z,95.92
2023-02-01T05:37:48.159Z,95.81
2023-02-01T05:38:48.177Z,96.54
2023-02-01T05:39:48.148Z,96.54
2023-02-01T05:40:48.149Z,96.75
2023-02-01T05:41:48.122Z,96.54
2023-02-01T05:42:48.118Z,96.54
2023-02-01T05:43:48.092Z,97.27
2023-02-01T05:44:48.098Z,97.47
2023-02-01T05:45:48.088Z,97.37
2023-02-01T05:46:50.123Z,97.58
2023-02-01T05:47:48.064Z,97.89
2023-02-01T05:48:48.072Z,98.20
2023-02-01T05:49:48.041Z,98.24
2023-02-01T05:50:48.063Z,98.45
2023-02-01T05:51:48.024Z,98.45
2023-02-01T05:52:48.017Z,98.45
2023-02-01T05:53:47.998Z,98.66
2023-02-01T05:54:48.027Z,98.76
2023-02-01T05:55:47.984Z,98.55
2023-02-01T05:56:48.012Z,98.55
2023-02-01T05:57:47.949Z,99.18
2023-02-01T05:58:47.974Z,98.66
2023-02-01T05:59:47.932Z,98.35
2023-02-01T06:00:47.934Z,98.24
2023-02-01T06:01:47.917Z,98.14
2023-02-01T06:02:47.931Z,98.14
2023-02-01T06:03:47.935Z,97.93
2023-02-01T06:04:47.891Z,97.93
2023-02-01T06:05:47.871Z,98.03
2023-02-01T06:06:47.878Z,98.24
2023-02-01T06:07:47.848Z,97.72
2023-02-01T06:08:47.869Z,97.31
2023-02-01T06:09:47.822Z,97.52
2023-02-01T06:10:47.851Z,97.72
2023-02-01T06:11:47.800Z,97.72
2023-02-01T06:12:47.816Z,98.03
2023-02-01T06:13:47.799Z,98.14
2023-02-01T06:14:47.806Z,98.03
2023-02-01T06:15:47.777Z,98.14
2023-02-01T06:16:47.764Z,98.14
2023-02-01T06:17:47.755Z,98.24
2023-02-01T06:18:47.764Z,98.35
2023-02-01T06:19:47.718Z,98.35
2023-02-01T06:20:47.736Z,98.35
2023-02-01T06:21:47.695Z,98.29
2023-02-01T06:22:47.727Z,98.39
2023-02-01T06:23:47.677Z,98.29
2023-02-01T06:24:47.700Z,98.19
2023-02-01T06:25:47.666Z,98.50
2023-02-01T06:26:47.728Z,98.60
2023-02-01T06:27:47.636Z,98.60
2023-02-01T06:28:47.605Z,98.60
2023-02-01T06:29:47.615Z,98.50
2023-02-01T06:30:47.600Z,98.50
2023-02-01T06:31:47.622Z,98.60
2023-02-01T06:32:47.558Z,98.81
2023-02-01T06:33:47.589Z,98.81
2023-02-01T06:34:47.536Z,98.81
2023-02-01T06:35:47.564Z,98.91
2023-02-01T06:36:47.569Z,98.91
2023-02-01T06:37:47.532Z,98.91
2023-02-01T06:38:47.560Z,98.91
2023-02-01T06:39:47.525Z,98.91
2023-02-01T06:40:47.532Z,99.12
2023-02-01T06:41:47.455Z,99.12
2023-02-01T06:42:47.448Z,99.02
2023-02-01T06:43:47.474Z,99.12
2023-02-01T06:44:47.427Z,99.12
2023-02-01T06:45:47.479Z,99.33
2023-02-01T06:46:47.502Z,99.33
2023-02-01T06:47:47.446Z,99.43
2023-02-01T06:48:47.374Z,99.22
2023-02-01T06:49:47.431Z,99.12
2023-02-01T06:50:47.361Z,99.22
2023-02-01T06:51:47.360Z,99.43
2023-02-01T06:52:47.332Z,99.54
2023-02-01T06:53:47.345Z,99.54
2023-02-01T06:54:47.313Z,99.54
2023-02-01T06:55:47.333Z,99.54
2023-02-01T06:56:47.282Z,99.54
2023-02-01T06:57:47.302Z,99.64
2023-02-01T06:58:47.272Z,99.74
2023-02-01T06:59:47.284Z,99.64
2023-02-01T07:00:47.322Z,99.64
2023-02-01T07:01:47.288Z,99.22
2023-02-01T07:02:47.221Z,99.22
2023-02-01T07:03:47.235Z,99.22
2023-02-01T07:04:47.197Z,99.02
2023-02-01T07:05:47.218Z,98.76
2023-02-01T07:06:47.217Z,98.66
2023-02-01T07:07:47.185Z,98.76
2023-02-01T07:08:47.160Z,98.76
2023-02-01T07:09:47.176Z,98.14
2023-02-01T07:10:47.142Z,98.14
2023-02-01T07:11:47.164Z,98.03
2023-02-01T07:12:47.129Z,98.14
2023-02-01T07:13:47.152Z,98.03
2023-02-01T07:14:47.095Z,98.14
2023-02-01T07:15:47.111Z,98.03
2023-02-01T07:16:47.086Z,97.78
2023-02-01T07:17:47.081Z,97.89
2023-02-01T07:18:47.071Z,97.89
2023-02-01T07:19:47.076Z,97.89
2023-02-01T07:20:47.033Z,97.78
2023-02-01T07:21:47.056Z,97.78
2023-02-01T07:22:47.011Z,97.99
2023-02-01T07:23:47.050Z,97.68
2023-02-01T07:24:46.989Z,97.68
2023-02-01T07:25:46.999Z,97.47
2023-02-01T07:26:46.991Z,97.27
2023-02-01T07:27:46.986Z,97.16
2023-02-01T07:28:46.957Z,97.37
2023-02-01T07:29:46.956Z,97.47
2023-02-01T07:30:46.932Z,97.16
2023-02-01T07:31:46.947Z,97.16
2023-02-01T07:32:46.996Z,97.16
2023-02-01T07:33:46.943Z,97.02
2023-02-01T07:34:46.957Z,96.91
2023-02-01T07:35:46.919Z,96.91
2023-02-01T07:36:46.868Z,96.91
2023-02-01T07:37:46.891Z,97.02
2023-02-01T07:38:46.845Z,96.91
2023-02-01T07:39:46.876Z,96.70
2023-02-01T07:40:46.822Z,96.81
2023-02-01T07:41:46.842Z,96.70
2023-02-01T07:42:46.803Z,96.50
2023-02-01T07:43:46.818Z,96.19
2023-02-01T07:44:46.777Z,96.08
2023-02-01T07:45:46.791Z,95.87
2023-02-01T07:46:46.757Z,96.03
2023-02-01T07:47:46.786Z,96.03
2023-02-01T07:48:46.752Z,95.72
2023-02-01T07:49:46.755Z,95.67
2023-02-01T07:50:46.725Z,95.41
2023-02-01T07:51:46.735Z,95.20
2023-02-01T07:52:46.697Z,95.00
2023-02-01T07:53:46.706Z,94.58
2023-02-01T07:54:46.684Z,94.68
2023-02-01T07:55:46.694Z,94.48
2023-02-01T07:56:46.652Z,93.85
2023-02-01T07:57:46.656Z,93.85
2023-02-01T07:58:46.631Z,93.96
2023-02-01T07:59:46.652Z,93.96
2023-02-01T08:00:46.657Z,93.96
2023-02-01T08:01:46.623Z,93.96
2023-02-01T08:02:46.596Z,93.96
2023-02-01T08:03:46.594Z,93.75
2023-02-01T08:04:46.574Z,93.85
2023-02-01T08:05:46.588Z,93.65
2023-02-01T08:06:46.559Z,93.44
2023-02-01T08:07:46.558Z,93.33
2023-02-01T08:08:46.531Z,93.13
2023-02-01T08:09:46.557Z,93.23
2023-02-01T08:10:46.504Z,93.02
2023-02-01T08:11:46.553Z,93.13
2023-02-01T08:12:46.493Z,93.02
2023-02-01T08:13:46.498Z,92.68
2023-02-01T08:14:46.467Z,92.47
2023-02-01T08:15:46.471Z,92.57
2023-02-01T08:16:46.481Z,92.68
2023-02-01T08:17:47.905Z,92.57
2023-02-01T08:18:46.425Z,92.57
2023-02-01T08:19:46.445Z,92.16
2023-02-01T08:20:46.407Z,91.95
2023-02-01T08:21:46.444Z,91.95
2023-02-01T08:22:46.389Z,91.74
2023-02-01T08:23:46.419Z,92.11
2023-02-01T08:24:46.362Z,91.60
2023-02-01T08:25:46.371Z,91.70
2023-02-01T08:26:46.396Z,91.70
2023-02-01T08:27:46.373Z,91.18
2023-02-01T08:28:46.320Z,91.08
2023-02-01T08:29:46.325Z,90.45
2023-02-01T08:30:46.341Z,90.56
2023-02-01T08:31:46.349Z,90.66
2023-02-01T08:32:46.299Z,90.97
2023-02-01T08:33:46.294Z,90.35
2023-02-01T08:34:46.266Z,90.77
2023-02-01T08:35:46.267Z,90.66
2023-02-01T08:36:46.241Z,90.62
2023-02-01T08:37:46.266Z,91.14
2023-02-01T08:38:46.225Z,90.10
2023-02-01T08:39:47.744Z,89.69
2023-02-01T08:40:46.200Z,89.17
2023-02-01T08:41:46.218Z,89.03
2023-02-01T08:42:46.193Z,87.85
2023-02-01T08:43:46.179Z,88.16
2023-02-01T08:44:46.155Z,88.06
2023-02-01T08:45:46.184Z,88.71
2023-02-01T08:46:46.138Z,88.71
2023-02-01T08:47:46.162Z,89.03
2023-02-01T08:48:46.125Z,89.13
2023-02-01T08:49:46.133Z,89.03
2023-02-01T08:50:46.105Z,88.51
2023-02-01T08:51:46.100Z,87.88
2023-02-01T08:52:46.079Z,88.40
2023-02-01T08:53:46.104Z,87.57
2023-02-01T08:54:46.049Z,87.54
2023-02-01T08:55:46.056Z,87.02
2023-02-01T08:56:46.091Z,87.43
2023-02-01T08:57:46.040Z,87.02
2023-02-01T08:58:46.045Z,86.91
2023-02-01T08:59:46.024Z,87.12
2023-02-01T09:00:45.989Z,86.91
2023-02-01T09:01:46.060Z,87.02
2023-02-01T09:02:45.978Z,87.33
2023-02-01T09:03:46.026Z,87.23
2023-02-01T09:04:45.963Z,87.43
2023-02-01T09:05:49.671Z,87.23
2023-02-01T09:06:45.927Z,87.43
2023-02-01T09:07:45.954Z,87.23
2023-02-01T09:08:45.911Z,87.33
2023-02-01T09:09:45.920Z,88.06
2023-02-01T09:10:45.890Z,88.30
2023-02-01T09:11:45.905Z,87.57
2023-02-01T09:12:45.886Z,87.99
2023-02-01T09:13:45.869Z,88.61
2023-02-01T09:14:45.873Z,89.03
2023-02-01T09:15:45.871Z,89.54
2023-02-01T09:16:45.823Z,89.38
2023-02-01T09:17:45.843Z,88.82
2023-02-01T09:18:55.689Z,89.13
2023-02-01T09:19:45.832Z,89.29
2023-02-01T09:20:45.780Z,89.44
2023-02-01T09:21:45.790Z,88.71
2023-02-01T09:22:45.768Z,88.40
2023-02-01T09:23:45.769Z,88.16
2023-02-01T09:24:45.797Z,87.43
2023-02-01T09:25:45.755Z,87.33
2023-02-01T09:26:45.753Z,87.43
2023-02-01T09:27:45.725Z,87.85
2023-02-01T09:28:45.699Z,88.20
2023-02-01T09:29:45.703Z,87.78
2023-02-01T09:30:45.854Z,87.54
2023-02-01T09:31:57.475Z,87.27
2023-02-01T09:32:45.668Z,87.74
2023-02-01T09:33:45.658Z,86.71
2023-02-01T09:34:45.634Z,85.78
2023-02-01T09:35:45.654Z,85.36
2023-02-01T09:36:45.626Z,84.01
2023-02-01T09:37:45.624Z,84.22
2023-02-01T09:38:52.912Z,84.22
2023-02-01T09:39:45.620Z,84.74
2023-02-01T09:40:45.574Z,84.01
2023-02-01T09:41:45.601Z,83.19
2023-02-01T09:42:45.569Z,83.71
2023-02-01T09:43:45.559Z,82.98
2023-02-01T09:44:45.533Z,83.09
2023-02-01T09:45:45.554Z,82.15
2023-02-01T09:46:45.522Z,82.36
2023-02-01T09:47:45.528Z,82.57
2023-02-01T09:48:45.489Z,82.43
2023-02-01T09:49:45.511Z,82.32
2023-02-01T09:50:45.468Z,82.53
2023-02-01T09:51:45.471Z,82.53
2023-02-01T09:52:45.468Z,80.98
2023-02-01T09:53:45.463Z,81.70
2023-02-01T09:54:45.434Z,81.87
2023-02-01T09:55:45.444Z,80.94
2023-02-01T09:56:45.408Z,80.74
2023-02-01T09:57:45.430Z,81.25
2023-02-01T09:58:45.391Z,80.53
2023-02-01T09:59:45.392Z,79.80
2023-02-01T10:00:45.374Z,80.11
2023-02-01T10:01:45.432Z,79.39
2023-02-01T10:02:45.355Z,79.39
2023-02-01T10:03:45.606Z,79.29
2023-02-01T10:04:45.351Z,79.49
2023-02-01T10:05:45.336Z,79.49
2023-02-01T10:06:45.305Z,79.80
2023-02-01T10:07:45.317Z,80.11
2023-02-01T10:08:45.285Z,80.11
2023-02-01T10:09:45.298Z,79.60
2023-02-01T10:10:45.265Z,79.80
2023-02-01T10:11:45.262Z,79.19
2023-02-01T10:12:45.246Z,79.80
2023-02-01T10:13:45.243Z,80.22
2023-02-01T10:14:45.231Z,80.74
2023-02-01T10:15:45.274Z,80.67
2023-02-01T10:16:45.298Z,80.67
2023-02-01T10:17:45.204Z,81.29
2023-02-01T10:18:45.177Z,81.70
2023-02-01T10:19:45.207Z,81.81
2023-02-01T10:20:45.153Z,82.43
2023-02-01T10:21:45.265Z,83.05
2023-02-01T10:23:22.760Z,83.67
2023-02-01T10:23:45.180Z,84.12
2023-02-01T10:24:45.112Z,84.64
2023-02-01T10:25:45.133Z,85.26
2023-02-01T10:26:45.149Z,86.29
2023-02-01T10:27:45.095Z,87.12
2023-02-01T10:28:45.072Z,87.12
2023-02-01T10:29:45.112Z,87.37
2023-02-01T10:30:45.126Z,88.09
2023-02-01T10:31:45.229Z,88.71
2023-02-01T10:32:45.027Z,89.34
2023-02-01T10:33:45.051Z,89.54
2023-02-01T10:34:45.010Z,90.10
2023-02-01T10:35:45.039Z,90.52
2023-02-01T10:36:44.996Z,91.45
2023-02-01T10:37:45.010Z,92.38
2023-02-01T10:38:44.970Z,92.69
2023-02-01T10:39:44.976Z,93.10
2023-02-01T10:40:45.062Z,93.41
2023-02-01T10:41:44.958Z,93.66
2023-02-01T10:42:44.922Z,93.98
2023-02-01T10:43:44.943Z,93.56
2023-02-01T10:44:44.904Z,93.66
2023-02-01T10:45:44.922Z,93.46
2023-02-01T10:46:44.951Z,92.74
2023-02-01T10:47:44.907Z,93.25
2023-02-01T10:48:44.858Z,94.14
2023-02-01T10:49:44.884Z,94.24
2023-02-01T10:50:44.846Z,92.80
2023-02-01T10:51:44.881Z,92.28
2023-02-01T10:52:44.818Z,90.72
2023-02-01T10:53:44.837Z,89.79
2023-02-01T10:54:44.815Z,90.47
2023-02-01T10:55:44.843Z,90.37
2023-02-01T10:56:44.777Z,89.65
2023-02-01T10:57:44.782Z,89.54
2023-02-01T10:58:44.776Z,89.23
2023-02-01T10:59:45.967Z,87.78
2023-02-01T11:00:44.770Z,89.03
2023-02-01T11:01:44.793Z,88.71
2023-02-01T11:02:44.812Z,88.09
2023-02-01T11:03:44.726Z,88.51
2023-02-01T11:04:44.708Z,87.57
2023-02-01T11:05:45.363Z,87.88
2023-02-01T11:06:44.718Z,88.82
2023-02-01T11:07:44.667Z,88.09
2023-02-01T11:08:44.686Z,87.78
2023-02-01T11:09:44.645Z,88.82
2023-02-01T11:10:44.651Z,87.57
2023-02-01T11:11:44.635Z,88.09
2023-02-01T11:12:44.656Z,88.09
2023-02-01T11:13:44.599Z,87.99
2023-02-01T11:14:44.683Z,87.47
2023-02-01T11:15:44.699Z,87.16
2023-02-01T11:16:44.601Z,87.57
2023-02-01T11:17:44.582Z,87.88
2023-02-01T11:18:44.594Z,87.88
2023-02-01T11:19:44.556Z,87.06
2023-02-01T11:20:44.559Z,87.27
2023-02-01T11:21:44.518Z,87.27
2023-02-01T11:22:44.542Z,87.57
2023-02-01T11:23:44.503Z,87.37
2023-02-01T11:24:44.515Z,87.27
2023-02-01T11:25:44.480Z,87.99
2023-02-01T11:26:44.556Z,88.51
2023-02-01T11:27:54.531Z,88.55
2023-02-01T11:28:44.481Z,90.20
2023-02-01T11:29:44.435Z,89.89
2023-02-01T11:30:44.482Z,90.00
2023-02-01T11:31:44.469Z,89.79
2023-02-01T11:32:44.421Z,89.79
2023-02-01T11:33:44.394Z,90.31
2023-02-01T11:34:44.407Z,90.20
2023-02-01T11:35:44.375Z,90.68
2023-02-01T11:36:44.399Z,90.99
2023-02-01T11:37:44.373Z,89.54
2023-02-01T11:38:44.392Z,87.78
2023-02-01T11:39:44.337Z,87.47
2023-02-01T11:40:44.360Z,87.27
2023-02-01T11:41:44.313Z,88.26
2023-02-01T11:42:44.345Z,87.74
2023-02-01T11:43:44.294Z,86.81
2023-02-01T11:44:44.299Z,86.81
2023-02-01T11:45:44.270Z,86.71
2023-02-01T11:46:44.319Z,86.60
2023-02-01T11:47:44.254Z,85.68
2023-02-01T11:48:44.275Z,85.26
2023-02-01T11:49:44.242Z,85.68
2023-02-01T11:50:44.246Z,85.68
2023-02-01T11:51:44.212Z,86.67
2023-02-01T11:52:44.326Z,84.19
2023-02-01T11:53:44.189Z,82.60
2023-02-01T11:54:44.215Z,83.42
2023-02-01T11:55:44.273Z,83.63
2023-02-01T11:56:44.205Z,83.22
2023-02-01T11:57:44.159Z,84.05
2023-02-01T11:58:44.152Z,83.32
2023-02-01T11:59:48.749Z,83.42
2023-02-01T12:00:44.151Z,84.97
2023-02-01T12:01:44.154Z,84.70
2023-02-01T12:02:46.675Z,84.50
2023-02-01T12:03:44.106Z,85.42
2023-02-01T12:04:44.094Z,85.22
2023-02-01T12:05:44.070Z,85.53
2023-02-01T12:06:44.092Z,85.42
2023-02-01T12:07:44.046Z,86.15
2023-02-01T12:08:45.903Z,87.60
2023-02-01T12:09:44.018Z,87.81
2023-02-01T12:10:44.026Z,87.60
2023-02-01T12:11:44.032Z,88.43
2023-02-01T12:12:44.006Z,87.95
2023-02-01T12:13:43.983Z,87.23
2023-02-01T12:14:43.987Z,87.85
2023-02-01T12:15:43.957Z,87.85
2023-02-01T12:16:44.054Z,87.43
2023-02-01T12:17:43.952Z,86.91
2023-02-01T12:18:43.939Z,87.12
2023-02-01T12:19:43.922Z,87.95
2023-02-01T12:20:43.922Z,87.02
2023-02-01T12:21:43.902Z,86.77
2023-02-01T12:22:43.916Z,86.77
2023-02-01T12:23:43.906Z,87.39
2023-02-01T12:24:43.882Z,87.39
2023-02-01T12:25:43.858Z,87.33
2023-02-01T12:26:44.019Z,87.23
2023-02-01T12:27:43.846Z,88.57
2023-02-01T12:28:43.852Z,88.46
2023-02-01T12:29:43.812Z,88.57
2023-02-01T12:30:43.863Z,87.95
2023-02-01T12:31:43.805Z,87.43
2023-02-01T12:32:43.832Z,86.71
2023-02-01T12:33:43.803Z,86.09
2023-02-01T12:34:43.773Z,85.78
2023-02-01T12:35:43.746Z,86.29
2023-02-01T12:36:43.764Z,86.19
2023-02-01T12:37:43.741Z,85.68
2023-02-01T12:38:43.753Z,85.99
2023-02-01T12:39:43.720Z,87.23
2023-02-01T12:40:43.723Z,87.16
2023-02-01T12:41:43.682Z,88.30
2023-02-01T12:42:43.696Z,89.38
2023-02-01T12:43:43.682Z,90.10
2023-02-01T12:44:43.686Z,90.93
2023-02-01T12:45:43.694Z,91.91
2023-02-01T12:46:43.645Z,92.22
2023-02-01T12:47:43.625Z,93.46
2023-02-01T12:48:43.935Z,93.66
2023-02-01T12:49:43.610Z,94.02
2023-02-01T12:50:43.620Z,94.23
2023-02-01T12:51:43.582Z,94.12
2023-02-01T12:52:43.586Z,94.64